Time;durP1;ratioP1;P1;durP2;ratioP2;P2;SDS_P1;SDS_P2;PMS_P1;PMS_P2;Temp;Humidity;BMP_temperature;BMP_pressure;BME280_temperature;BME280_humidity;BME280_pressure;Samples;Min_cycle;Max_cycle;Signal;HPM_P1;HPM_P2
2024/03/13 00:00:13;;;;;;;38.80;26.50;;;;;;;0.73;86.35;99664.02;106996;1266;59628;-38
2024/03/13 00:02:45;;;;;;;39.50;26.80;;;;;;;0.70;86.83;99661.91;107073;1260;71768;-37
2024/03/13 00:05:12;;;;;;;36.30;24.30;;;;;;;0.68;86.67;99664.48;107021;1264;67592;-38
2024/03/13 00:07:43;;;;;;;36.50;24.20;;;;;;;0.72;86.45;99664.88;107020;1261;71681;-37
2024/03/13 00:10:10;;;;;;;39.10;25.70;;;;;;;0.74;86.67;99669.59;107055;1260;59692;-37
2024/03/13 00:12:38;;;;;;;35.60;24.20;;;;;;;0.72;86.96;99668.77;107053;1262;59254;-38
2024/03/13 00:15:07;;;;;;;33.90;23.80;;;;;;;0.73;86.91;99672.02;107014;1260;72396;-38
2024/03/13 00:17:35;;;;;;;34.50;23.10;;;;;;;0.79;86.82;99669.22;107063;1266;66775;-37
2024/03/13 00:20:04;;;;;;;33.20;22.80;;;;;;;0.81;86.56;99668.59;107053;1266;72705;-38
2024/03/13 00:22:34;;;;;;;35.10;22.90;;;;;;;0.78;86.61;99664.99;107067;1261;59689;-38
2024/03/13 00:25:02;;;;;;;34.10;21.60;;;;;;;0.76;86.94;99659.80;107029;1261;60516;-37
2024/03/13 00:27:29;;;;;;;28.10;20.10;;;;;;;0.80;86.76;99656.48;107013;1265;72077;-37
2024/03/13 00:29:57;;;;;;;32.90;21.10;;;;;;;0.81;86.46;99651.89;107022;1265;65912;-38
2024/03/13 00:32:25;;;;;;;29.90;20.50;;;;;;;0.76;86.61;99650.25;107039;1264;71425;-37
2024/03/13 00:34:52;;;;;;;29.60;19.40;;;;;;;0.72;86.39;99656.13;107009;1261;59858;-38
2024/03/13 00:37:21;;;;;;;26.30;18.40;;;;;;;0.76;86.50;99654.94;106974;1261;60022;-38
2024/03/13 00:39:49;;;;;;;20.20;15.00;;;;;;;0.76;86.28;99653.46;106904;1262;73088;-38
2024/03/13 00:42:17;;;;;;;27.10;18.30;;;;;;;0.72;86.30;99649.46;106952;1265;67638;-38
2024/03/13 00:44:45;;;;;;;28.40;17.40;;;;;;;0.69;86.37;99651.63;106976;1266;73084;-38
2024/03/13 00:47:14;;;;;;;27.70;17.10;;;;;;;0.70;86.01;99650.59;106954;1266;59618;-37
2024/03/13 00:49:42;;;;;;;25.80;18.20;;;;;;;0.67;86.01;99647.77;106934;1261;60661;-37
2024/03/13 00:52:10;;;;;;;29.10;17.00;;;;;;;0.62;86.18;99646.55;106905;1266;73106;-38
2024/03/13 00:54:44;;;;;;;28.30;17.30;;;;;;;0.64;85.85;99645.71;106959;1265;66313;-38
2024/03/13 00:57:13;;;;;;;30.20;17.80;;;;;;;0.66;85.66;99645.21;106980;1260;72783;-37
2024/03/13 00:59:40;;;;;;;28.30;17.90;;;;;;;0.60;85.85;99640.27;107357;1259;59573;-37
2024/03/13 01:02:08;;;;;;;28.90;16.60;;;;;;;0.54;85.84;99639.54;107265;1260;59683;-37
2024/03/13 01:04:36;;;;;;;29.80;17.90;;;;;;;0.57;85.58;99639.84;107290;1255;73161;-38
2024/03/13 01:07:06;;;;;;;30.30;18.80;;;;;;;0.55;85.53;99639.54;107295;1260;67581;-38
2024/03/13 01:09:34;;;;;;;33.70;18.20;;;;;;;0.48;85.66;99639.83;107263;1261;71842;-37
2024/03/13 01:12:05;;;;;;;31.60;18.40;;;;;;;0.48;85.56;99637.34;107261;1260;60921;-38
2024/03/13 01:14:34;;;;;;;34.80;19.80;;;;;;;0.50;85.27;99638.52;107259;1257;60059;-38
2024/03/13 01:17:02;;;;;;;32.70;19.90;;;;;;;0.48;85.36;99638.77;107166;1257;72822;-38
2024/03/13 01:19:33;;;;;;;24.50;13.90;;;;;;;0.42;85.34;99633.89;107283;1258;66315;-37
2024/03/13 01:22:05;;;;;;;31.90;18.90;;;;;;;0.48;85.30;99640.10;107255;1257;72707;-37
2024/03/13 01:24:36;;;;;;;30.40;18.60;;;;;;;0.48;85.23;99641.44;107278;1257;59698;-37
2024/03/13 01:27:04;;;;;;;30.00;19.00;;;;;;;0.43;85.39;99641.02;107267;1261;61152;-38
2024/03/13 01:29:31;;;;;;;33.10;19.30;;;;;;;0.40;85.46;99640.14;107237;1258;73110;-38
2024/03/13 01:31:59;;;;;;;29.00;18.40;;;;;;;0.44;85.05;99637.98;107251;1261;66571;-38
2024/03/13 01:34:27;;;;;;;27.90;19.50;;;;;;;0.43;85.16;99640.16;107298;1257;72717;-38
2024/03/13 01:39:41;;;;;;;30.20;18.10;;;;;;;0.38;85.18;99636.60;107276;1257;60964;-38
2024/03/13 01:56:22;;;;;;;31.20;19.80;;;;;;;0.32;85.24;99636.57;107269;1258;73511;-38
2024/03/13 01:59:02;;;;;;;32.70;20.00;;;;;;;0.35;85.37;99636.15;107186;1258;67684;-38
2024/03/13 02:04:17;;;;;;;32.60;20.70;;;;;;;0.34;85.41;99638.29;107266;1258;59548;-38
2024/03/13 02:06:46;;;;;;;34.20;21.00;;;;;;;0.32;85.43;99636.41;107280;1260;60036;-38
2024/03/13 02:09:15;;;;;;;31.60;20.20;;;;;;;0.34;85.47;99632.33;107292;1257;73051;-38
2024/03/13 02:11:42;;;;;;;34.10;22.70;;;;;;;0.32;85.49;99632.30;107255;1256;67929;-38
2024/03/13 02:14:10;;;;;;;34.40;22.60;;;;;;;0.26;85.70;99629.48;107251;1260;72797;-38
2024/03/13 02:16:37;;;;;;;36.00;21.50;;;;;;;0.26;85.80;99632.95;107274;1257;60916;-38
2024/03/13 02:19:06;;;;;;;34.80;21.50;;;;;;;0.30;85.62;99628.32;107143;1258;59513;-38
2024/03/13 02:21:35;;;;;;;34.60;22.30;;;;;;;0.26;85.51;99627.73;107204;1258;73040;-38
2024/03/13 02:24:03;;;;;;;30.20;20.00;;;;;;;0.23;85.69;99626.33;107195;1258;67878;-38
2024/03/13 02:26:31;;;;;;;30.10;19.90;;;;;;;0.26;85.45;99628.31;107183;1255;72722;-38
2024/03/13 02:28:58;;;;;;;31.50;20.20;;;;;;;0.31;85.55;99628.04;107204;1258;59787;-38
2024/03/13 02:31:26;;;;;;;32.30;20.60;;;;;;;0.29;85.47;99624.16;107177;1256;60014;-38
2024/03/13 02:33:55;;;;;;;33.90;20.20;;;;;;;0.26;85.38;99626.08;107240;1257;73117;-38
2024/03/13 02:36:23;;;;;;;33.50;20.80;;;;;;;0.29;85.17;99622.57;107224;1257;67874;-38
2024/03/13 02:38:51;;;;;;;33.70;21.40;;;;;;;0.32;85.02;99623.13;107220;1257;72663;-38
2024/03/13 02:41:18;;;;;;;33.50;21.70;;;;;;;0.31;85.34;99626.39;107151;1257;60015;-38
2024/03/13 02:43:46;;;;;;;35.90;20.80;;;;;;;0.28;85.24;99622.05;107232;1257;60031;-38
2024/03/13 02:46:13;;;;;;;31.10;21.70;;;;;;;0.33;84.96;99623.16;107243;1257;73015;-38
2024/03/13 02:48:41;;;;;;;36.60;20.70;;;;;;;0.36;84.81;99621.41;107255;1258;67910;-38
2024/03/13 02:51:09;;;;;;;34.60;21.00;;;;;;;0.34;84.81;99623.31;107256;1257;72682;-38
2024/03/13 02:53:38;;;;;;;34.30;20.40;;;;;;;0.30;85.00;99620.36;107251;1257;59235;-38
2024/03/13 02:56:09;;;;;;;30.30;20.70;;;;;;;0.34;84.86;99622.41;107233;1257;59653;-38
2024/03/13 02:58:36;;;;;;;33.40;20.20;;;;;;;0.37;84.80;99621.20;107256;1256;73032;-38
2024/03/13 03:01:04;;;;;;;32.80;18.70;;;;;;;0.35;84.72;99618.82;107289;1260;66443;-38
2024/03/13 03:03:31;;;;;;;29.00;17.80;;;;;;;0.31;84.81;99613.80;107180;1257;72671;-38
2024/03/13 03:06:02;;;;;;;29.50;18.40;;;;;;;0.27;84.62;99599.98;107130;1257;60889;-37
2024/03/13 03:08:32;;;;;;;31.30;18.00;;;;;;;0.35;84.66;99617.43;107090;1258;60329;-38
2024/03/13 03:11:03;;;;;;;28.40;17.60;;;;;;;0.30;84.92;99615.09;107181;1257;73837;-37
2024/03/13 03:13:30;;;;;;;25.70;15.70;;;;;;;0.27;85.01;99615.13;107205;1262;67614;-38
2024/03/13 03:16:00;;;;;;;29.70;16.80;;;;;;;0.29;85.02;99611.05;107198;1258;72679;-37
2024/03/13 03:18:28;;;;;;;30.50;17.80;;;;;;;0.25;85.25;99611.48;107209;1257;60428;-38
2024/03/13 03:20:58;;;;;;;24.80;16.90;;;;;;;0.21;85.39;99608.27;107255;1260;60914;-38
2024/03/13 03:23:26;;;;;;;27.20;15.50;;;;;;;0.23;85.14;99613.10;107244;1257;73851;-38
2024/03/13 03:25:53;;;;;;;29.50;16.50;;;;;;;0.25;84.83;99610.83;107248;1258;67582;-37
2024/03/13 03:28:21;;;;;;;28.70;16.70;;;;;;;0.21;85.18;99610.45;107253;1257;73057;-37
2024/03/13 03:30:51;;;;;;;26.70;16.00;;;;;;;0.15;85.47;99608.13;107218;1260;61171;-38
2024/03/13 03:33:19;;;;;;;26.30;15.20;;;;;;;0.19;85.15;99609.20;107292;1257;60325;-38
2024/03/13 03:35:47;;;;;;;26.00;16.50;;;;;;;0.20;85.13;99609.04;107241;1257;74170;-38
2024/03/13 03:38:15;;;;;;;27.50;16.40;;;;;;;0.16;85.42;99611.81;107274;1258;67912;-38
2024/03/13 03:40:42;;;;;;;27.70;16.40;;;;;;;0.14;85.50;99610.06;107293;1257;71392;-38
2024/03/13 03:43:10;;;;;;;28.50;16.70;;;;;;;0.17;85.46;99608.26;107314;1260;60457;-38
2024/03/13 03:45:38;;;;;;;27.80;16.50;;;;;;;0.18;85.61;99613.70;107237;1256;60725;-38
2024/03/13 03:48:08;;;;;;;28.30;16.90;;;;;;;0.11;85.82;99612.08;107170;1257;73886;-38
2024/03/13 03:50:39;;;;;;;27.90;16.20;;;;;;;0.12;86.03;99611.11;107202;1257;67875;-38
2024/03/13 03:53:07;;;;;;;25.90;16.90;;;;;;;0.15;85.92;99611.54;107222;1256;72661;-38
2024/03/13 03:55:36;;;;;;;29.30;19.70;;;;;;;0.13;86.09;99613.92;107184;1257;60427;-37
2024/03/13 03:58:06;;;;;;;28.20;17.60;;;;;;;0.08;86.66;99608.11;107227;1257;60479;-37
2024/03/13 04:00:35;;;;;;;29.50;18.20;;;;;;;0.12;86.39;99608.44;107253;1257;75012;-38
2024/03/13 04:03:04;;;;;;;28.90;19.30;;;;;;;0.14;86.31;99608.98;107228;1257;67887;-38
2024/03/13 04:05:32;;;;;;;24.70;15.20;;;;;;;0.09;86.78;99606.23;106489;1257;1003564;-37
2024/03/13 04:08:00;;;;;;;24.70;16.70;;;;;;;0.08;86.84;99602.78;107206;1256;62272;-38
2024/03/13 04:10:27;;;;;;;23.60;16.30;;;;;;;0.12;86.83;99607.42;107267;1257;60756;-38
2024/03/13 04:12:55;;;;;;;31.00;17.10;;;;;;;0.12;86.80;99605.98;107258;1257;73906;-38
2024/03/13 04:15:23;;;;;;;24.30;15.80;;;;;;;0.08;86.99;99608.59;107243;1260;67642;-37
2024/03/13 04:17:51;;;;;;;23.10;15.70;;;;;;;0.11;86.92;99606.58;107213;1257;71692;-37
2024/03/13 04:20:20;;;;;;;23.10;15.80;;;;;;;0.18;86.83;99607.02;107262;1260;60526;-37
2024/03/13 04:22:50;;;;;;;25.60;17.70;;;;;;;0.19;86.78;99602.34;106938;1253;1002952;-38
2024/03/13 04:25:18;;;;;;;25.80;15.50;;;;;;;0.17;86.85;99602.45;107616;1254;73837;-38
2024/03/13 04:27:47;;;;;;;26.70;16.30;;;;;;;0.19;86.51;99602.71;107597;1253;68031;-37
2024/03/13 04:30:15;;;;;;;25.20;16.10;;;;;;;0.19;86.19;99597.26;107539;1253;72673;-37
2024/03/13 04:32:43;;;;;;;27.50;16.70;;;;;;;0.15;86.25;99599.91;107492;1257;60907;-37
2024/03/13 04:35:11;;;;;;;25.00;16.40;;;;;;;0.12;86.35;99600.11;107525;1253;60424;-37
2024/03/13 04:37:39;;;;;;;27.60;17.40;;;;;;;0.14;85.61;99601.15;107596;1254;73824;-37
2024/03/13 04:40:10;;;;;;;27.30;18.20;;;;;;;0.12;85.71;99601.98;107662;1254;67615;-37
2024/03/13 04:42:38;;;;;;;28.50;17.80;;;;;;;0.07;85.67;99606.58;107496;1257;72709;-37
2024/03/13 04:45:06;;;;;;;27.00;16.80;;;;;;;0.10;85.59;99608.45;107529;1254;60922;-37
2024/03/13 04:47:35;;;;;;;28.60;17.20;;;;;;;0.11;85.56;99608.50;106887;1253;1003291;-37
2024/03/13 04:50:08;;;;;;;28.00;17.80;;;;;;;-0.00;85.63;99602.12;107560;1254;73878;-37
2024/03/13 04:52:36;;;;;;;28.60;18.80;;;;;;;0.04;85.66;99611.61;107542;1254;66273;-37
2024/03/13 04:55:05;;;;;;;27.80;18.60;;;;;;;0.09;85.60;99606.91;107598;1254;73098;-37
2024/03/13 04:57:34;;;;;;;32.60;20.00;;;;;;;0.06;85.39;99607.33;107611;1253;60431;-37
2024/03/13 05:00:04;;;;;;;30.60;18.40;;;;;;;0.03;85.58;99607.85;107578;1254;60285;-37
2024/03/13 05:02:32;;;;;;;27.90;18.40;;;;;;;0.07;85.67;99610.31;107576;1254;73975;-37
2024/03/13 05:05:03;;;;;;;31.40;20.60;;;;;;;0.13;85.68;99612.58;107512;1259;66562;-37
2024/03/13 05:07:31;;;;;;;34.70;22.50;;;;;;;0.08;85.59;99600.11;107528;1254;72639;-38
2024/03/13 05:09:59;;;;;;;34.50;21.00;;;;;;;0.10;85.83;99607.33;107618;1254;60633;-38
2024/03/13 05:12:34;;;;;;;30.30;20.00;;;;;;;0.14;85.52;99605.86;107558;1259;60454;-37
2024/03/13 05:15:04;;;;;;;36.00;21.70;;;;;;;0.16;85.51;99606.41;107571;1254;73829;-37
2024/03/13 05:17:34;;;;;;;35.20;22.40;;;;;;;0.13;85.85;99605.81;106818;1254;1002898;-38
2024/03/13 05:20:06;;;;;;;31.20;21.10;;;;;;;0.16;85.74;99610.47;107562;1254;73829;-37
2024/03/13 05:22:34;;;;;;;39.30;23.60;;;;;;;0.23;85.80;99607.72;107411;1254;60549;-37
2024/03/13 05:25:04;;;;;;;38.50;23.70;;;;;;;0.24;86.12;99605.63;107595;1254;61130;-37
2024/03/13 05:27:32;;;;;;;34.00;23.30;;;;;;;0.21;86.06;99608.53;107606;1254;72261;-38
2024/03/13 05:30:00;;;;;;;38.30;24.30;;;;;;;0.21;85.84;99602.52;107495;1253;67923;-37
2024/03/13 05:32:27;;;;;;;35.30;24.90;;;;;;;0.31;85.89;99609.38;107399;1254;72644;-38
2024/03/13 05:34:55;;;;;;;36.30;23.80;;;;;;;0.29;86.00;99607.73;106848;1254;1003270;-38
2024/03/13 05:37:23;;;;;;;33.90;22.60;;;;;;;0.30;86.15;99609.98;107615;1253;60384;-37
2024/03/13 05:39:52;;;;;;;32.70;23.40;;;;;;;0.38;86.20;99611.16;107588;1254;73859;-38
2024/03/13 05:42:22;;;;;;;36.20;26.40;;;;;;;0.40;86.15;99607.66;107556;1257;66288;-37
2024/03/13 05:44:49;;;;;;;40.30;25.00;;;;;;;0.39;86.11;99612.52;107495;1259;72657;-37
2024/03/13 05:47:17;;;;;;;35.60;23.70;;;;;;;0.43;86.14;99607.52;107571;1255;60885;-38
2024/03/13 05:49:45;;;;;;;37.80;24.80;;;;;;;0.50;85.78;99608.98;107625;1254;60530;-38
2024/03/13 05:52:12;;;;;;;39.80;26.10;;;;;;;0.48;85.74;99612.00;107585;1253;73885;-38
2024/03/13 05:54:40;;;;;;;34.60;23.90;;;;;;;0.46;86.03;99606.79;107583;1253;67578;-37
2024/03/13 05:57:08;;;;;;;34.40;23.70;;;;;;;0.52;85.87;99615.04;107565;1257;73608;-38
2024/03/13 05:59:35;;;;;;;38.10;25.80;;;;;;;0.54;85.71;99619.91;107506;1253;60363;-38
2024/03/13 06:02:05;;;;;;;36.70;26.00;;;;;;;0.52;85.85;99623.90;107602;1253;60057;-37
2024/03/13 06:04:33;;;;;;;;;;;;;;;0.53;85.79;99625.59;107390;1254;71949;-38
2024/03/13 06:07:05;;;;;;;34.50;24.30;;;;;;;0.57;85.74;99624.58;107397;1254;66686;-37
2024/03/13 06:09:33;;;;;;;43.20;25.90;;;;;;;0.53;85.76;99624.73;107546;1256;72679;-38
2024/03/13 06:12:01;;;;;;;39.00;25.70;;;;;;;0.49;85.73;99627.45;107533;1254;60120;-38
2024/03/13 06:14:29;;;;;;;38.70;25.70;;;;;;;0.48;86.12;99621.70;107656;1253;60284;-38
2024/03/13 06:16:57;;;;;;;36.60;25.40;;;;;;;0.50;85.91;99623.01;107472;1254;73894;-38
2024/03/13 06:19:26;;;;;;;39.20;25.00;;;;;;;0.49;86.13;99625.30;107554;1256;66409;-38
2024/03/13 06:21:54;;;;;;;35.50;25.40;;;;;;;0.50;86.29;99619.49;107538;1253;73049;-38
2024/03/13 06:24:30;;;;;;;37.70;26.50;;;;;;;0.58;86.02;99622.69;107538;1254;60546;-38
2024/03/13 06:27:00;;;;;;;39.40;27.00;;;;;;;0.58;85.68;99626.27;107627;1254;60316;-38
2024/03/13 06:32:14;;;;;;;39.40;25.60;;;;;;;0.63;85.45;99623.09;107647;1254;67448;-37
2024/03/13 06:34:42;;;;;;;46.30;27.60;;;;;;;0.61;85.29;99629.58;107606;1253;73090;-37
2024/03/13 06:37:11;;;;;;;37.90;26.90;;;;;;;0.59;85.45;99631.73;107601;1254;60397;-38
2024/03/13 06:39:38;;;;;;;35.20;25.00;;;;;;;0.63;85.54;99632.06;107606;1253;60437;-38
2024/03/13 06:42:06;;;;;;;37.50;27.00;;;;;;;0.68;85.40;99629.86;107570;1254;74299;-38
2024/03/13 06:44:33;;;;;;;39.60;27.20;;;;;;;0.68;85.18;99627.95;107624;1253;67654;-38
2024/03/13 06:47:01;;;;;;;40.00;25.30;;;;;;;0.67;85.18;99629.02;107595;1253;72802;-38
2024/03/13 06:49:29;;;;;;;34.50;25.30;;;;;;;0.72;84.65;99633.97;107592;1257;61136;-37
2024/03/13 06:51:56;;;;;;;39.50;27.40;;;;;;;0.74;84.87;99637.04;107529;1256;62195;-37
2024/03/13 06:54:24;;;;;;;38.50;26.40;;;;;;;0.76;85.27;99641.34;107514;1253;73065;-39
2024/03/13 06:56:53;;;;;;;36.70;25.60;;;;;;;0.83;84.85;99639.80;107530;1254;65802;-38
2024/03/13 06:59:20;;;;;;;36.20;24.80;;;;;;;0.90;84.38;99640.34;107540;1254;71555;-38
2024/03/13 07:01:51;;;;;;;37.50;27.30;;;;;;;0.89;84.37;99641.31;107512;1257;60466;-38
2024/03/13 07:04:19;;;;;;;39.70;26.20;;;;;;;0.87;84.17;99635.46;107594;1253;60338;-38
2024/03/13 07:06:46;;;;;;;35.90;26.20;;;;;;;0.89;84.02;99639.13;107519;1257;72815;-38
2024/03/13 07:09:16;;;;;;;37.60;27.10;;;;;;;0.92;84.02;99639.09;107549;1253;68077;-38
2024/03/13 07:11:44;;;;;;;38.90;27.40;;;;;;;0.86;84.06;99642.21;107434;1254;72800;-38
2024/03/13 07:14:13;;;;;;;42.00;26.80;;;;;;;0.82;84.07;99637.46;107611;1254;60501;-38
2024/03/13 07:16:41;;;;;;;32.00;21.40;;;;;;;0.86;84.01;99635.86;107561;1253;59588;-38
2024/03/13 07:19:09;;;;;;;41.60;28.10;;;;;;;0.87;84.03;99636.23;107601;1253;72697;-38
2024/03/13 07:21:37;;;;;;;42.50;27.00;;;;;;;0.81;84.38;99634.27;107630;1254;67769;-38
2024/03/13 07:24:07;;;;;;;40.60;27.80;;;;;;;0.81;84.43;99639.23;107530;1254;73971;-38
2024/03/13 07:26:34;;;;;;;40.40;26.70;;;;;;;0.89;84.22;99636.89;107601;1252;60430;-38
2024/03/13 07:29:04;;;;;;;41.20;29.30;;;;;;;0.91;84.22;99635.02;107590;1256;61223;-38
2024/03/13 07:31:31;;;;;;;42.10;23.70;;;;;;;0.91;84.43;99634.88;107608;1253;71736;-38
2024/03/13 07:33:59;;;;;;;39.90;26.60;;;;;;;0.93;84.31;99631.23;107615;1254;68289;-38
2024/03/13 07:36:27;;;;;;;41.90;27.80;;;;;;;1.02;83.91;99630.66;107496;1254;73075;-38
2024/03/13 07:38:58;;;;;;;47.10;29.00;;;;;;;1.05;83.65;99628.81;107397;1254;60401;-38
2024/03/13 07:41:27;;;;;;;42.10;28.50;;;;;;;1.04;83.30;99626.73;107451;1254;60408;-38
2024/03/13 07:43:54;;;;;;;41.30;28.10;;;;;;;1.06;83.08;99625.36;107499;1256;73183;-38
2024/03/13 07:46:22;;;;;;;42.30;28.80;;;;;;;1.14;82.81;99630.48;107590;1253;67995;-37
2024/03/13 07:48:50;;;;;;;43.20;28.40;;;;;;;1.18;82.92;99626.05;107463;1253;71758;-37
2024/03/13 07:51:17;;;;;;;45.60;27.40;;;;;;;1.22;82.58;99628.38;107488;1254;61661;-37
2024/03/13 07:53:45;;;;;;;42.50;27.00;;;;;;;1.30;81.97;99630.98;107362;1257;60303;-37
2024/03/13 07:56:13;;;;;;;42.40;29.00;;;;;;;1.39;81.48;99638.11;107544;1253;72134;-37
2024/03/13 07:58:40;;;;;;;43.30;28.10;;;;;;;1.44;81.35;99642.00;107610;1254;66222;-37
2024/03/13 08:01:08;;;;;;;39.50;26.40;;;;;;;1.47;81.48;99638.52;107567;1253;72192;-37
2024/03/13 08:03:36;;;;;;;40.20;26.70;;;;;;;1.58;81.19;99643.67;107495;1254;60216;-37
2024/03/13 08:06:04;;;;;;;42.70;26.70;;;;;;;1.62;80.69;99644.39;105212;1256;1005764;-37
2024/03/13 08:08:49;;;;;;;42.80;26.20;;;;;;;1.66;80.60;99651.17;107553;1253;76037;-38
2024/03/13 08:11:34;;;;;;;38.80;25.60;;;;;;;1.67;79.80;99646.23;107624;1254;68017;-37
2024/03/13 08:14:20;;;;;;;38.80;25.60;;;;;;;1.69;79.71;99651.91;107470;1254;71836;-38
2024/03/13 08:17:06;;;;;;;39.60;27.10;;;;;;;1.66;79.33;99650.85;107596;1257;60408;-38
2024/03/13 08:19:51;;;;;;;37.20;25.00;;;;;;;1.60;79.18;99647.21;107494;1253;60704;-37
2024/03/13 08:22:36;;;;;;;37.30;24.60;;;;;;;1.63;79.48;99650.16;107505;1259;72730;-37
2024/03/13 08:25:22;;;;;;;42.10;28.40;;;;;;;1.65;79.57;99643.27;107509;1254;70232;-37
2024/03/13 08:28:07;;;;;;;42.80;27.10;;;;;;;1.61;79.19;99644.21;107374;1254;74880;-38
2024/03/13 08:30:52;;;;;;;42.40;26.60;;;;;;;1.61;79.49;99650.95;107518;1254;60241;-38
2024/03/13 08:33:37;;;;;;;38.90;25.80;;;;;;;1.75;79.60;99655.29;107564;1253;60388;-38
2024/03/13 08:36:22;;;;;;;40.00;26.90;;;;;;;1.82;79.47;99652.55;107531;1254;74229;-38
2024/03/13 08:39:09;;;;;;;40.60;26.10;;;;;;;1.85;79.05;99655.07;107590;1254;66495;-38
2024/03/13 08:41:55;;;;;;;36.80;25.00;;;;;;;1.89;78.93;99658.48;107590;1254;72812;-38
2024/03/13 08:44:41;;;;;;;32.10;23.10;;;;;;;1.97;77.56;99659.23;107595;1254;61520;-38
2024/03/13 08:47:28;;;;;;;36.90;23.40;;;;;;;1.93;76.98;99660.44;107612;1253;60315;-38
2024/03/13 08:50:15;;;;;;;34.40;23.50;;;;;;;1.86;77.33;99658.25;107605;1254;72733;-38
2024/03/13 08:53:01;;;;;;;33.60;22.40;;;;;;;1.89;77.73;99660.86;107481;1256;68551;-38
2024/03/13 08:55:46;;;;;;;36.70;22.50;;;;;;;1.98;76.86;99655.33;107637;1253;73011;-38
2024/03/13 08:58:31;;;;;;;37.90;24.30;;;;;;;1.95;76.57;99656.48;107710;1253;61413;-38
2024/03/13 09:01:16;;;;;;;34.50;22.60;;;;;;;1.94;77.11;99659.35;107656;1256;60871;-38
2024/03/13 09:04:02;;;;;;;28.70;20.80;;;;;;;2.00;76.79;99664.69;107612;1252;73994;-37
2024/03/13 09:06:49;;;;;;;32.80;21.40;;;;;;;1.99;76.52;99670.52;107569;1254;70228;-37
2024/03/13 09:09:23;;;;;;;35.40;24.10;;;;;;;1.94;76.90;99672.86;107572;1254;72767;-37
2024/03/13 09:11:51;;;;;;;32.30;21.20;;;;;;;1.88;76.99;99679.19;107557;1255;60490;-37
2024/03/13 09:14:19;;;;;;;31.10;21.90;;;;;;;1.88;77.07;99679.66;107639;1254;60622;-38
2024/03/13 09:16:49;;;;;;;31.00;21.70;;;;;;;1.84;77.22;99680.31;107615;1253;74017;-37
2024/03/13 09:19:17;;;;;;;35.00;22.60;;;;;;;1.74;77.33;99685.13;107696;1253;66783;-38
2024/03/13 09:21:48;;;;;;;34.90;21.20;;;;;;;1.67;77.51;99681.31;107666;1253;71442;-38
2024/03/13 09:24:16;;;;;;;31.20;20.90;;;;;;;1.68;77.90;99683.27;107657;1253;59614;-38
2024/03/13 09:26:44;;;;;;;34.70;21.60;;;;;;;1.64;78.20;99678.02;107670;1252;60328;-38
2024/03/13 09:29:14;;;;;;;33.50;22.40;;;;;;;1.59;78.34;99683.02;107671;1254;72249;-37
2024/03/13 09:31:42;;;;;;;31.20;20.60;;;;;;;1.56;78.57;99681.95;107659;1253;67089;-37
2024/03/13 09:34:10;;;;;;;31.60;20.50;;;;;;;1.62;78.60;99678.52;107615;1256;72735;-37
2024/03/13 09:36:38;;;;;;;33.90;21.90;;;;;;;1.63;78.38;99679.49;107656;1254;60289;-37
2024/03/13 09:39:06;;;;;;;35.60;21.50;;;;;;;1.57;78.15;99674.71;107707;1253;60485;-37
2024/03/13 09:41:34;;;;;;;32.20;20.30;;;;;;;1.56;78.23;99678.27;107635;1254;73270;-37
2024/03/13 09:44:02;;;;;;;28.90;20.30;;;;;;;1.63;78.42;99678.86;107576;1254;68023;-37
2024/03/13 09:46:30;;;;;;;30.60;20.90;;;;;;;1.66;78.43;99680.08;107656;1254;72780;-37
2024/03/13 09:48:58;;;;;;;32.70;20.90;;;;;;;1.67;78.48;99681.57;107726;1254;60878;-37
2024/03/13 09:51:26;;;;;;;26.70;19.80;;;;;;;1.69;78.38;99676.78;107609;1256;60992;-37
2024/03/13 09:53:53;;;;;;;27.60;18.10;;;;;;;1.77;78.11;99674.18;107381;1254;74171;-37
2024/03/13 09:56:21;;;;;;;28.50;18.10;;;;;;;1.82;77.71;99673.56;107406;1253;69160;-37
2024/03/13 09:58:50;;;;;;;29.60;19.60;;;;;;;1.81;77.47;99672.89;107390;1253;71578;-37
2024/03/13 10:01:28;;;;;;;28.40;17.10;;;;;;;1.78;76.84;99672.73;107559;1257;60446;-37
2024/03/13 10:04:02;;;;;;;26.30;17.40;;;;;;;1.80;76.25;99672.48;107422;1256;60348;-37
2024/03/13 10:06:31;;;;;;;33.60;17.30;;;;;;;1.82;76.29;99676.12;107693;1254;73378;-38
2024/03/13 10:08:58;;;;;;;29.20;18.20;;;;;;;1.82;76.32;99678.96;107676;1257;67983;-37
2024/03/13 10:11:26;;;;;;;30.10;17.40;;;;;;;1.84;76.32;99680.60;107328;1260;72830;-37
2024/03/13 10:13:54;;;;;;;24.20;16.00;;;;;;;1.90;75.39;99680.53;107695;1257;60460;-37
2024/03/13 10:16:25;;;;;;;27.90;16.30;;;;;;;1.95;75.11;99675.09;107682;1254;60769;-37
2024/03/13 10:18:52;;;;;;;27.10;17.00;;;;;;;1.97;75.16;99675.16;107690;1252;72703;-37
2024/03/13 10:21:25;;;;;;;28.40;16.60;;;;;;;1.98;74.19;99678.41;107494;1253;66756;-37
2024/03/13 10:23:56;;;;;;;28.20;15.50;;;;;;;1.98;73.68;99679.16;107721;1252;74905;-37
2024/03/13 10:26:26;;;;;;;24.00;16.10;;;;;;;2.05;73.81;99677.86;107629;1254;60389;-37
2024/03/13 10:28:54;;;;;;;25.30;15.40;;;;;;;2.07;73.68;99676.23;107679;1253;60325;-37
2024/03/13 10:31:21;;;;;;;26.40;16.90;;;;;;;2.06;73.04;99676.88;107682;1252;73992;-37
2024/03/13 10:33:50;;;;;;;25.10;15.80;;;;;;;2.05;73.12;99678.06;107493;1253;66229;-37
2024/03/13 10:36:18;;;;;;;22.80;15.20;;;;;;;2.10;73.31;99674.13;107694;1254;71540;-37
2024/03/13 10:38:47;;;;;;;27.50;16.20;;;;;;;2.17;72.88;99671.23;107508;1254;60527;-37
2024/03/13 10:41:15;;;;;;;29.40;16.80;;;;;;;2.18;73.24;99673.71;107575;1254;60539;-37
2024/03/13 10:43:43;;;;;;;29.20;16.30;;;;;;;2.18;72.72;99667.92;107583;1254;75971;-37
2024/03/13 10:46:12;;;;;;;25.00;16.20;;;;;;;2.18;72.99;99672.84;107542;1254;66843;-37
2024/03/13 10:48:41;;;;;;;27.20;15.10;;;;;;;2.23;72.25;99668.59;107586;1254;73728;-37
2024/03/13 10:51:12;;;;;;;25.60;15.80;;;;;;;2.28;71.87;99667.10;107349;1260;60412;-37
2024/03/13 10:53:39;;;;;;;24.90;16.00;;;;;;;2.28;71.48;99663.31;107497;1253;60854;-38
2024/03/13 10:56:14;;;;;;;26.40;16.80;;;;;;;2.27;71.94;99660.45;107538;1252;74179;-38
2024/03/13 10:58:42;;;;;;;31.10;17.10;;;;;;;2.28;72.11;99660.90;107761;1253;66488;-37
2024/03/13 11:01:16;;;;;;;25.30;16.50;;;;;;;2.35;71.99;99654.98;107565;1252;72875;-38
2024/03/13 11:03:45;;;;;;;28.20;16.30;;;;;;;2.44;71.58;99656.57;107686;1254;60399;-38
2024/03/13 11:06:14;;;;;;;27.10;17.10;;;;;;;2.48;72.00;99652.86;107551;1254;202884;-37
2024/03/13 11:10:59;;;;;;;29.30;17.60;;;;;;;2.60;70.82;99651.63;104119;1292;600916;-37
2024/03/13 11:13:50;;;;;;;31.60;16.20;;;;;;;2.61;70.73;99659.33;106658;1267;63092;-37
2024/03/13 11:16:18;;;;;;;25.60;15.90;;;;;;;2.73;70.82;99661.70;106617;1267;59708;-37
2024/03/13 11:18:45;;;;;;;24.00;15.40;;;;;;;2.81;70.29;99657.78;106616;1266;72123;-37
2024/03/13 11:21:32;;;;;;;26.40;16.20;;;;;;;2.83;69.83;99657.84;106613;1266;68376;-37
2024/03/13 11:24:02;;;;;;;28.80;16.90;;;;;;;2.86;70.28;99654.94;106505;1263;192666;-37
2024/03/13 11:26:33;;;;;;;26.70;16.90;;;;;;;2.90;70.01;99653.51;106754;1267;59375;-37
2024/03/13 11:29:07;;;;;;;26.30;16.50;;;;;;;2.94;69.59;99654.98;106723;1263;59154;-37
2024/03/13 11:31:34;;;;;;;22.50;14.90;;;;;;;2.98;68.71;99650.60;106758;1269;70235;-37
2024/03/13 11:34:02;;;;;;;24.60;15.10;;;;;;;3.01;68.00;99644.36;106725;1263;70177;-37
2024/03/13 11:36:30;;;;;;;23.30;15.20;;;;;;;2.98;67.62;99646.70;106598;1266;73029;-37
2024/03/13 11:38:58;;;;;;;25.50;14.50;;;;;;;2.91;67.09;99641.50;106929;1257;59257;-37
2024/03/13 11:41:25;;;;;;;22.30;14.30;;;;;;;2.82;67.24;99644.95;107120;1257;60209;-37
2024/03/13 11:43:53;;;;;;;22.80;13.70;;;;;;;2.75;67.17;99646.35;107085;1257;73414;-37
2024/03/13 11:46:33;;;;;;;24.60;13.50;;;;;;;2.74;67.80;99642.88;107083;1258;67368;-37
2024/03/13 11:49:02;;;;;;;24.60;14.30;;;;;;;2.80;68.05;99645.88;107113;1259;71834;-37
2024/03/13 11:51:35;;;;;;;21.70;14.00;;;;;;;2.79;68.16;99649.67;107088;1257;59605;-37
2024/03/13 11:54:12;;;;;;;24.00;13.90;;;;;;;2.78;67.51;99640.56;107070;1257;60512;-38